sensor_id;sensor_type;location;lat;lon;timestamp;pressure;altitude;pressure_sealevel;temperature;humidity
45129;BME280;35512;56.312;101.728;2022-09-16T00:01:33;96918.19;;;4.43;53.77
45129;BME280;35512;56.312;101.728;2022-09-16T00:04:02;96924.88;;;4.72;53.99
45129;BME280;35512;56.312;101.728;2022-09-16T00:06:31;96918.91;;;4.93;53.50
45129;BME280;35512;56.312;101.728;2022-09-16T00:09:00;96922.72;;;5.09;53.61
45129;BME280;35512;56.312;101.728;2022-09-16T00:11:31;96919.09;;;5.22;53.79
45129;BME280;35512;56.312;101.728;2022-09-16T00:14:03;96913.59;;;5.36;53.95
45129;BME280;35512;56.312;101.728;2022-09-16T00:16:32;96884.59;;;5.30;53.68
45129;BME280;35512;56.312;101.728;2022-09-16T00:19:01;96918.75;;;5.68;52.87
45129;BME280;35512;56.312;101.728;2022-09-16T00:21:30;96922.06;;;5.82;53.02
45129;BME280;35512;56.312;101.728;2022-09-16T00:23:59;96914.78;;;6.00;52.81
45129;BME280;35512;56.312;101.728;2022-09-16T00:26:28;96918.50;;;6.17;52.68
45129;BME280;35512;56.312;101.728;2022-09-16T00:28:58;96914.34;;;6.28;52.66
45129;BME280;35512;56.312;101.728;2022-09-16T00:31:27;96920.31;;;6.42;52.68
45129;BME280;35512;56.312;101.728;2022-09-16T00:33:56;96919.31;;;6.56;52.22
45129;BME280;35512;56.312;101.728;2022-09-16T00:36:25;96916.97;;;6.75;52.29
45129;BME280;35512;56.312;101.728;2022-09-16T00:38:54;96923.50;;;6.96;52.23
45129;BME280;35512;56.312;101.728;2022-09-16T00:41:28;96918.59;;;7.19;52.14
45129;BME280;35512;56.312;101.728;2022-09-16T00:44:03;96907.16;;;7.43;52.15
45129;BME280;35512;56.312;101.728;2022-09-16T00:46:59;96908.75;;;7.77;51.52
45129;BME280;35512;56.312;101.728;2022-09-16T00:49:29;96908.78;;;8.60;50.64
45129;BME280;35512;56.312;101.728;2022-09-16T00:52:01;96906.91;;;9.99;48.49
45129;BME280;35512;56.312;101.728;2022-09-16T00:54:32;96911.47;;;11.30;47.25
45129;BME280;35512;56.312;101.728;2022-09-16T00:57:06;96914.94;;;12.55;46.95
45129;BME280;35512;56.312;101.728;2022-09-16T00:59:41;96920.06;;;13.75;46.02
45129;BME280;35512;56.312;101.728;2022-09-16T01:02:15;96924.88;;;14.75;45.82
45129;BME280;35512;56.312;101.728;2022-09-16T01:04:52;96920.69;;;15.62;45.26
45129;BME280;35512;56.312;101.728;2022-09-16T01:07:33;96912.31;;;16.32;45.11
45129;BME280;35512;56.312;101.728;2022-09-16T01:10:04;96911.97;;;16.91;44.52
45129;BME280;35512;56.312;101.728;2022-09-16T01:12:34;96910.22;;;17.55;43.94
45129;BME280;35512;56.312;101.728;2022-09-16T01:15:05;96918.97;;;18.10;43.27
45129;BME280;35512;56.312;101.728;2022-09-16T01:17:45;96907.66;;;18.60;42.39
45129;BME280;35512;56.312;101.728;2022-09-16T01:20:40;96912.72;;;19.07;41.43
45129;BME280;35512;56.312;101.728;2022-09-16T01:40:28;96914.44;;;22.20;37.23
45129;BME280;35512;56.312;101.728;2022-09-16T01:43:07;96922.91;;;22.62;36.60
45129;BME280;35512;56.312;101.728;2022-09-16T01:46:02;96919.34;;;22.94;35.71
45129;BME280;35512;56.312;101.728;2022-09-16T01:48:42;96928.72;;;23.13;35.36
45129;BME280;35512;56.312;101.728;2022-09-16T01:51:36;96933.75;;;23.61;34.76
45129;BME280;35512;56.312;101.728;2022-09-16T01:59:37;96936.50;;;24.29;33.17
45129;BME280;35512;56.312;101.728;2022-09-16T04:35:22;96893.09;;;36.13;13.06
45129;BME280;35512;56.312;101.728;2022-09-16T04:37:53;96880.56;;;35.84;13.50
45129;BME280;35512;56.312;101.728;2022-09-16T04:40:21;96885.38;;;35.89;14.19
45129;BME280;35512;56.312;101.728;2022-09-16T04:42:50;96884.91;;;35.85;13.63
45129;BME280;35512;56.312;101.728;2022-09-16T04:45:19;96876.00;;;35.75;13.87
45129;BME280;35512;56.312;101.728;2022-09-16T04:47:57;96883.72;;;35.99;14.24
45129;BME280;35512;56.312;101.728;2022-09-16T04:50:26;96875.72;;;36.64;14.16
45129;BME280;35512;56.312;101.728;2022-09-16T04:52:55;96878.06;;;37.04;13.67
45129;BME280;35512;56.312;101.728;2022-09-16T04:55:23;96882.53;;;37.37;13.47
45129;BME280;35512;56.312;101.728;2022-09-16T04:57:52;96872.00;;;37.19;13.69
45129;BME280;35512;56.312;101.728;2022-09-16T05:00:21;96865.91;;;37.34;13.65
45129;BME280;35512;56.312;101.728;2022-09-16T05:02:50;96873.97;;;37.43;13.50
45129;BME280;35512;56.312;101.728;2022-09-16T05:05:22;96869.00;;;36.92;13.25
45129;BME280;35512;56.312;101.728;2022-09-16T05:07:51;96874.50;;;36.60;13.79
45129;BME280;35512;56.312;101.728;2022-09-16T05:10:20;96862.25;;;36.82;13.49
45129;BME280;35512;56.312;101.728;2022-09-16T05:12:52;96859.56;;;36.90;13.38
45129;BME280;35512;56.312;101.728;2022-09-16T05:15:21;96851.28;;;37.16;13.63
45129;BME280;35512;56.312;101.728;2022-09-16T05:17:50;96865.75;;;37.45;13.22
45129;BME280;35512;56.312;101.728;2022-09-16T05:20:19;96858.66;;;37.58;12.94
45129;BME280;35512;56.312;101.728;2022-09-16T05:22:48;96846.19;;;37.85;12.89
45129;BME280;35512;56.312;101.728;2022-09-16T05:25:18;96851.41;;;37.81;13.14
45129;BME280;35512;56.312;101.728;2022-09-16T05:27:47;96849.44;;;37.57;13.05
45129;BME280;35512;56.312;101.728;2022-09-16T05:30:16;96840.84;;;37.49;13.13
45129;BME280;35512;56.312;101.728;2022-09-16T05:32:53;96830.84;;;37.67;13.12
45129;BME280;35512;56.312;101.728;2022-09-16T05:35:22;96834.06;;;37.58;12.65
45129;BME280;35512;56.312;101.728;2022-09-16T05:37:52;96835.56;;;36.88;12.61
45129;BME280;35512;56.312;101.728;2022-09-16T05:40:21;96838.50;;;36.52;13.01
45129;BME280;35512;56.312;101.728;2022-09-16T05:42:50;96832.38;;;36.73;12.99
45129;BME280;35512;56.312;101.728;2022-09-16T05:45:19;96825.75;;;36.95;12.91
45129;BME280;35512;56.312;101.728;2022-09-16T05:47:54;96830.97;;;37.04;12.72
45129;BME280;35512;56.312;101.728;2022-09-16T05:50:23;96838.13;;;37.25;13.01
45129;BME280;35512;56.312;101.728;2022-09-16T05:52:51;96836.59;;;37.75;12.71
45129;BME280;35512;56.312;101.728;2022-09-16T05:55:20;96778.03;;;37.87;12.40
45129;BME280;35512;56.312;101.728;2022-09-16T05:57:49;96839.47;;;38.34;12.29
45129;BME280;35512;56.312;101.728;2022-09-16T06:00:18;96829.16;;;38.37;11.88
45129;BME280;35512;56.312;101.728;2022-09-16T06:02:48;96825.56;;;38.50;12.10
45129;BME280;35512;56.312;101.728;2022-09-16T06:05:17;96826.53;;;38.26;11.98
45129;BME280;35512;56.312;101.728;2022-09-16T06:07:46;96823.94;;;38.28;12.33
45129;BME280;35512;56.312;101.728;2022-09-16T06:10:15;96823.94;;;38.28;12.26
45129;BME280;35512;56.312;101.728;2022-09-16T06:12:44;96818.63;;;38.24;12.41
45129;BME280;35512;56.312;101.728;2022-09-16T06:15:13;96810.72;;;38.36;12.24
45129;BME280;35512;56.312;101.728;2022-09-16T06:17:41;96814.13;;;37.88;11.89
45129;BME280;35512;56.312;101.728;2022-09-16T06:20:10;96814.69;;;37.68;12.27
45129;BME280;35512;56.312;101.728;2022-09-16T06:22:41;96807.94;;;37.58;11.89
45129;BME280;35512;56.312;101.728;2022-09-16T06:25:10;96798.59;;;37.49;11.84
45129;BME280;35512;56.312;101.728;2022-09-16T06:27:39;96792.63;;;37.20;11.98
45129;BME280;35512;56.312;101.728;2022-09-16T06:30:08;96790.75;;;36.91;11.97
45129;BME280;35512;56.312;101.728;2022-09-16T06:32:38;96796.81;;;36.95;11.97
45129;BME280;35512;56.312;101.728;2022-09-16T06:35:07;96802.16;;;37.17;12.17
45129;BME280;35512;56.312;101.728;2022-09-16T06:37:36;96799.53;;;37.71;11.94
45129;BME280;35512;56.312;101.728;2022-09-16T06:40:05;96788.97;;;37.91;11.74
45129;BME280;35512;56.312;101.728;2022-09-16T06:42:34;96791.72;;;37.64;11.95
45129;BME280;35512;56.312;101.728;2022-09-16T06:45:04;96784.44;;;36.84;12.25
45129;BME280;35512;56.312;101.728;2022-09-16T06:47:34;96796.69;;;33.70;12.88
45129;BME280;35512;56.312;101.728;2022-09-16T06:50:04;96781.06;;;31.54;14.24
45129;BME280;35512;56.312;101.728;2022-09-16T06:52:33;96785.88;;;29.98;14.62
45129;BME280;35512;56.312;101.728;2022-09-16T06:55:03;96781.81;;;30.76;14.32
45129;BME280;35512;56.312;101.728;2022-09-16T06:57:32;96779.34;;;32.43;13.74
45129;BME280;35512;56.312;101.728;2022-09-16T07:00:02;96775.81;;;33.71;13.27
45129;BME280;35512;56.312;101.728;2022-09-16T07:02:32;96745.50;;;32.90;13.38
45129;BME280;35512;56.312;101.728;2022-09-16T07:05:01;96765.63;;;31.27;13.99
45129;BME280;35512;56.312;101.728;2022-09-16T07:07:30;96763.00;;;30.50;14.47
45129;BME280;35512;56.312;101.728;2022-09-16T07:09:59;96762.81;;;31.59;14.42
45129;BME280;35512;56.312;101.728;2022-09-16T07:12:30;96751.56;;;32.83;13.84
45129;BME280;35512;56.312;101.728;2022-09-16T07:14:58;96741.16;;;32.95;13.70
45129;BME280;35512;56.312;101.728;2022-09-16T07:17:29;96745.97;;;32.17;13.52
45129;BME280;35512;56.312;101.728;2022-09-16T07:19:58;96727.09;;;31.63;14.07
45129;BME280;35512;56.312;101.728;2022-09-16T07:22:30;96752.59;;;31.82;14.17
45129;BME280;35512;56.312;101.728;2022-09-16T07:24:59;96742.44;;;30.06;14.93
45129;BME280;35512;56.312;101.728;2022-09-16T07:27:30;96754.84;;;28.56;15.62
45129;BME280;35512;56.312;101.728;2022-09-16T07:29:59;96743.00;;;27.21;15.88
45129;BME280;35512;56.312;101.728;2022-09-16T07:32:35;96742.94;;;25.41;16.85
45129;BME280;35512;56.312;101.728;2022-09-16T07:35:04;96747.72;;;23.91;17.54
45129;BME280;35512;56.312;101.728;2022-09-16T07:37:34;96731.88;;;22.59;18.31
45129;BME280;35512;56.312;101.728;2022-09-16T07:40:09;96736.19;;;21.65;18.79
45129;BME280;35512;56.312;101.728;2022-09-16T07:42:38;96730.25;;;20.93;19.21
45129;BME280;35512;56.312;101.728;2022-09-16T07:45:09;96734.16;;;20.29;19.55
45129;BME280;35512;56.312;101.728;2022-09-16T07:47:38;96735.75;;;20.50;19.31
45129;BME280;35512;56.312;101.728;2022-09-16T07:50:07;96739.47;;;22.55;19.08
45129;BME280;35512;56.312;101.728;2022-09-16T07:52:36;96735.63;;;25.03;18.14
45129;BME280;35512;56.312;101.728;2022-09-16T07:55:06;96721.41;;;27.25;17.38
45129;BME280;35512;56.312;101.728;2022-09-16T07:57:36;96735.06;;;28.78;16.54
45129;BME280;35512;56.312;101.728;2022-09-16T08:00:05;96732.84;;;29.72;16.08
45129;BME280;35512;56.312;101.728;2022-09-16T08:02:38;96725.75;;;29.56;15.91
45129;BME280;35512;56.312;101.728;2022-09-16T08:05:07;96728.16;;;28.10;16.48
45129;BME280;35512;56.312;101.728;2022-09-16T08:07:37;96720.47;;;25.71;17.09
45129;BME280;35512;56.312;101.728;2022-09-16T08:10:06;96718.06;;;23.70;18.32
45129;BME280;35512;56.312;101.728;2022-09-16T08:12:36;96722.47;;;22.27;19.05
45129;BME280;35512;56.312;101.728;2022-09-16T08:15:05;96713.94;;;21.23;19.69
45129;BME280;35512;56.312;101.728;2022-09-16T08:17:35;96717.00;;;20.88;19.95
45129;BME280;35512;56.312;101.728;2022-09-16T08:20:03;96720.97;;;20.23;20.25
45129;BME280;35512;56.312;101.728;2022-09-16T08:22:34;96718.25;;;19.45;20.63
45129;BME280;35512;56.312;101.728;2022-09-16T08:25:03;96729.53;;;18.92;21.19
45129;BME280;35512;56.312;101.728;2022-09-16T08:27:35;96712.03;;;18.48;21.53
45129;BME280;35512;56.312;101.728;2022-09-16T08:30:05;96720.50;;;18.23;21.59
45129;BME280;35512;56.312;101.728;2022-09-16T08:32:33;96711.78;;;17.97;21.70
45129;BME280;35512;56.312;101.728;2022-09-16T08:35:03;96712.19;;;17.96;21.68
45129;BME280;35512;56.312;101.728;2022-09-16T08:37:33;96707.94;;;17.87;21.99
45129;BME280;35512;56.312;101.728;2022-09-16T08:40:03;96718.06;;;17.87;22.04
45129;BME280;35512;56.312;101.728;2022-09-16T08:45:35;96714.66;;;17.76;22.30
45129;BME280;35512;56.312;101.728;2022-09-16T08:50:57;96709.91;;;17.27;22.87
45129;BME280;35512;56.312;101.728;2022-09-16T08:53:42;96706.16;;;16.99;22.96
45129;BME280;35512;56.312;101.728;2022-09-16T08:56:15;96698.84;;;16.75;23.03
45129;BME280;35512;56.312;101.728;2022-09-16T08:58:48;96710.13;;;16.77;23.25
45129;BME280;35512;56.312;101.728;2022-09-16T09:01:40;96707.00;;;16.82;23.25
45129;BME280;35512;56.312;101.728;2022-09-16T09:04:12;96705.78;;;16.97;23.40
45129;BME280;35512;56.312;101.728;2022-09-16T09:18:22;96701.25;;;16.51;24.09
45129;BME280;35512;56.312;101.728;2022-09-16T09:21:29;96702.91;;;16.27;24.47
45129;BME280;35512;56.312;101.728;2022-09-16T09:27:01;96709.94;;;15.99;24.84
45129;BME280;35512;56.312;101.728;2022-09-16T11:18:11;96719.00;;;11.67;28.48
45129;BME280;35512;56.312;101.728;2022-09-16T11:40:46;96728.53;;;10.36;30.76
45129;BME280;35512;56.312;101.728;2022-09-16T11:54:41;96743.47;;;9.82;31.76
45129;BME280;35512;56.312;101.728;2022-09-16T11:57:14;96740.19;;;9.73;31.39
45129;BME280;35512;56.312;101.728;2022-09-16T11:59:55;96740.38;;;9.64;31.94
45129;BME280;35512;56.312;101.728;2022-09-16T12:05:22;96740.78;;;9.50;32.03
45129;BME280;35512;56.312;101.728;2022-09-16T12:11:01;96750.59;;;9.42;32.50
45129;BME280;35512;56.312;101.728;2022-09-16T12:13:51;96749.63;;;9.35;32.75
45129;BME280;35512;56.312;101.728;2022-09-16T12:16:50;96749.69;;;9.22;33.00
45129;BME280;35512;56.312;101.728;2022-09-16T12:19:51;96750.66;;;9.14;32.57
45129;BME280;35512;56.312;101.728;2022-09-16T12:22:33;96751.59;;;9.06;33.27
45129;BME280;35512;56.312;101.728;2022-09-16T12:30:29;96754.22;;;8.90;33.45
45129;BME280;35512;56.312;101.728;2022-09-16T12:33:25;96760.41;;;8.90;33.13
45129;BME280;35512;56.312;101.728;2022-09-16T12:36:21;96758.84;;;8.89;33.39
45129;BME280;35512;56.312;101.728;2022-09-16T12:38:52;96753.44;;;8.89;33.26
45129;BME280;35512;56.312;101.728;2022-09-16T12:44:27;96758.13;;;8.92;33.52
45129;BME280;35512;56.312;101.728;2022-09-16T12:53:05;96767.25;;;8.88;33.74
45129;BME280;35512;56.312;101.728;2022-09-16T12:55:59;96771.19;;;8.78;34.01
45129;BME280;35512;56.312;101.728;2022-09-16T13:01:20;96772.81;;;8.67;34.48
45129;BME280;35512;56.312;101.728;2022-09-16T13:03:53;96764.75;;;8.54;34.53
45129;BME280;35512;56.312;101.728;2022-09-16T13:06:33;96769.72;;;8.52;34.68
45129;BME280;35512;56.312;101.728;2022-09-16T13:09:44;96769.25;;;8.50;34.52
45129;BME280;35512;56.312;101.728;2022-09-16T13:12:25;96777.34;;;8.50;34.53
45129;BME280;35512;56.312;101.728;2022-09-16T13:15:32;96766.69;;;8.29;34.79
45129;BME280;35512;56.312;101.728;2022-09-16T13:21:01;96782.94;;;8.33;35.08
45129;BME280;35512;56.312;101.728;2022-09-16T13:23:35;96784.41;;;8.30;35.00
45129;BME280;35512;56.312;101.728;2022-09-16T13:26:09;96788.88;;;8.38;34.91
45129;BME280;35512;56.312;101.728;2022-09-16T13:28:42;96793.47;;;8.38;35.13
45129;BME280;35512;56.312;101.728;2022-09-16T13:34:33;96789.00;;;8.29;35.20
45129;BME280;35512;56.312;101.728;2022-09-16T13:36:35;96795.50;;;8.28;35.24
45129;BME280;35512;56.312;101.728;2022-09-16T13:39:10;96793.03;;;8.23;35.12
45129;BME280;35512;56.312;101.728;2022-09-16T13:41:46;96788.25;;;8.17;35.19
45129;BME280;35512;56.312;101.728;2022-09-16T13:49:48;96785.44;;;8.13;35.80
45129;BME280;35512;56.312;101.728;2022-09-16T13:52:34;96789.44;;;8.07;35.69
45129;BME280;35512;56.312;101.728;2022-09-16T13:55:07;96786.75;;;8.07;35.77
45129;BME280;35512;56.312;101.728;2022-09-16T14:12:21;96786.09;;;7.85;35.90
45129;BME280;35512;56.312;101.728;2022-09-16T14:14:32;96794.94;;;7.86;35.90
45129;BME280;35512;56.312;101.728;2022-09-16T14:17:23;96795.28;;;7.84;36.47
45129;BME280;35512;56.312;101.728;2022-09-16T14:19:58;96797.50;;;7.82;36.78
45129;BME280;35512;56.312;101.728;2022-09-16T14:22:27;96795.94;;;7.81;36.73
45129;BME280;35512;56.312;101.728;2022-09-16T14:24:58;96787.44;;;7.79;36.50
45129;BME280;35512;56.312;101.728;2022-09-16T14:27:34;96796.41;;;7.83;36.69
45129;BME280;35512;56.312;101.728;2022-09-16T14:30:18;96786.88;;;7.73;36.60
45129;BME280;35512;56.312;101.728;2022-09-16T14:32:47;96796.72;;;7.69;36.94
45129;BME280;35512;56.312;101.728;2022-09-16T14:35:22;96794.13;;;7.60;36.56
45129;BME280;35512;56.312;101.728;2022-09-16T14:37:59;96801.63;;;7.55;36.31
45129;BME280;35512;56.312;101.728;2022-09-16T14:40:29;96793.00;;;7.49;36.77
45129;BME280;35512;56.312;101.728;2022-09-16T14:43:05;96800.91;;;7.45;36.83
45129;BME280;35512;56.312;101.728;2022-09-16T14:45:36;96789.72;;;7.43;37.13
45129;BME280;35512;56.312;101.728;2022-09-16T14:48:07;96798.22;;;7.45;36.59
45129;BME280;35512;56.312;101.728;2022-09-16T14:50:40;96794.78;;;7.45;36.60
45129;BME280;35512;56.312;101.728;2022-09-16T14:53:23;96786.38;;;7.47;36.76
45129;BME280;35512;56.312;101.728;2022-09-16T14:56:03;96797.69;;;7.52;36.71
45129;BME280;35512;56.312;101.728;2022-09-16T14:58:33;96788.38;;;7.50;36.84
45129;BME280;35512;56.312;101.728;2022-09-16T15:01:09;96793.75;;;7.50;37.19
45129;BME280;35512;56.312;101.728;2022-09-16T15:06:15;96791.94;;;7.41;37.51
45129;BME280;35512;56.312;101.728;2022-09-16T15:08:52;96789.69;;;7.31;37.54
45129;BME280;35512;56.312;101.728;2022-09-16T15:11:26;96796.31;;;7.34;37.46
45129;BME280;35512;56.312;101.728;2022-09-16T15:14:16;96802.22;;;7.27;37.06
45129;BME280;35512;56.312;101.728;2022-09-16T15:16:48;96794.22;;;7.18;36.98
45129;BME280;35512;56.312;101.728;2022-09-16T15:19:46;96798.38;;;7.16;37.59
45129;BME280;35512;56.312;101.728;2022-09-16T15:22:16;96793.22;;;7.10;37.69
45129;BME280;35512;56.312;101.728;2022-09-16T15:24:48;96795.31;;;7.05;38.35
45129;BME280;35512;56.312;101.728;2022-09-16T15:27:28;96799.91;;;7.04;37.66
45129;BME280;35512;56.312;101.728;2022-09-16T15:29:59;96795.84;;;6.98;38.23
45129;BME280;35512;56.312;101.728;2022-09-16T15:32:29;96793.22;;;6.89;38.16
45129;BME280;35512;56.312;101.728;2022-09-16T15:37:41;96785.88;;;6.77;38.30
45129;BME280;35512;56.312;101.728;2022-09-16T15:45:32;96786.16;;;6.64;38.53
45129;BME280;35512;56.312;101.728;2022-09-16T15:48:05;96790.28;;;6.61;38.31
45129;BME280;35512;56.312;101.728;2022-09-16T15:50:50;96797.22;;;6.62;38.46
45129;BME280;35512;56.312;101.728;2022-09-16T15:53:33;96800.50;;;6.68;38.53
45129;BME280;35512;56.312;101.728;2022-09-16T15:56:18;96797.03;;;6.67;38.43
45129;BME280;35512;56.312;101.728;2022-09-16T15:58:52;96787.16;;;6.59;38.28
45129;BME280;35512;56.312;101.728;2022-09-16T16:01:45;96805.22;;;6.71;38.94
45129;BME280;35512;56.312;101.728;2022-09-16T16:04:26;96805.69;;;6.73;38.65
45129;BME280;35512;56.312;101.728;2022-09-16T16:07:00;96801.88;;;6.74;38.27
45129;BME280;35512;56.312;101.728;2022-09-16T16:09:32;96808.16;;;6.78;38.98
45129;BME280;35512;56.312;101.728;2022-09-16T16:12:15;96807.69;;;6.76;38.65
45129;BME280;35512;56.312;101.728;2022-09-16T16:14:45;96799.31;;;6.77;38.94
45129;BME280;35512;56.312;101.728;2022-09-16T16:17:16;96795.59;;;6.70;38.64
45129;BME280;35512;56.312;101.728;2022-09-16T16:19:48;96785.25;;;6.59;38.81
45129;BME280;35512;56.312;101.728;2022-09-16T16:22:17;96810.84;;;6.78;38.43
45129;BME280;35512;56.312;101.728;2022-09-16T16:24:47;96799.53;;;6.72;39.22
45129;BME280;35512;56.312;101.728;2022-09-16T16:27:16;96810.34;;;6.85;38.95
45129;BME280;35512;56.312;101.728;2022-09-16T16:29:45;96800.13;;;6.78;39.03
45129;BME280;35512;56.312;101.728;2022-09-16T16:32:15;96810.66;;;6.83;38.87
45129;BME280;35512;56.312;101.728;2022-09-16T16:34:46;96803.06;;;6.85;38.81
45129;BME280;35512;56.312;101.728;2022-09-16T16:37:18;96809.41;;;6.81;39.39
45129;BME280;35512;56.312;101.728;2022-09-16T16:40:07;96804.31;;;6.67;39.19
45129;BME280;35512;56.312;101.728;2022-09-16T16:42:37;96814.50;;;6.73;39.87
45129;BME280;35512;56.312;101.728;2022-09-16T16:45:07;96817.06;;;6.70;39.75
45129;BME280;35512;56.312;101.728;2022-09-16T16:47:36;96806.84;;;6.63;39.57
45129;BME280;35512;56.312;101.728;2022-09-16T16:50:05;96809.41;;;6.59;39.87
45129;BME280;35512;56.312;101.728;2022-09-16T16:52:35;96815.25;;;6.62;40.11
45129;BME280;35512;56.312;101.728;2022-09-16T16:55:04;96796.72;;;6.48;39.90
45129;BME280;35512;56.312;101.728;2022-09-16T16:57:34;96810.25;;;6.51;40.15
45129;BME280;35512;56.312;101.728;2022-09-16T17:00:03;96815.09;;;6.37;39.96
45129;BME280;35512;56.312;101.728;2022-09-16T17:02:34;96821.81;;;6.13;40.46
45129;BME280;35512;56.312;101.728;2022-09-16T17:05:03;96824.53;;;5.96;40.64
45129;BME280;35512;56.312;101.728;2022-09-16T17:07:33;96824.75;;;5.90;40.46
45129;BME280;35512;56.312;101.728;2022-09-16T17:10:02;96819.56;;;5.85;40.67
45129;BME280;35512;56.312;101.728;2022-09-16T17:12:31;96825.25;;;5.84;40.62
45129;BME280;35512;56.312;101.728;2022-09-16T17:15:00;96822.91;;;5.73;41.17
45129;BME280;35512;56.312;101.728;2022-09-16T17:17:30;96824.19;;;5.67;40.95
45129;BME280;35512;56.312;101.728;2022-09-16T17:19:59;96819.31;;;5.61;40.89
45129;BME280;35512;56.312;101.728;2022-09-16T17:22:29;96827.50;;;5.64;40.65
45129;BME280;35512;56.312;101.728;2022-09-16T17:24:58;96826.38;;;5.65;41.14
45129;BME280;35512;56.312;101.728;2022-09-16T17:27:26;96809.88;;;5.54;41.66
45129;BME280;35512;56.312;101.728;2022-09-16T17:29:57;96823.44;;;5.58;41.24
45129;BME280;35512;56.312;101.728;2022-09-16T17:32:30;96828.63;;;5.54;41.50
45129;BME280;35512;56.312;101.728;2022-09-16T17:34:58;96827.69;;;5.50;41.64
45129;BME280;35512;56.312;101.728;2022-09-16T17:37:29;96842.81;;;5.46;41.37
45129;BME280;35512;56.312;101.728;2022-09-16T17:39:58;96835.13;;;5.36;42.34
45129;BME280;35512;56.312;101.728;2022-09-16T17:42:27;96840.50;;;5.36;41.79
45129;BME280;35512;56.312;101.728;2022-09-16T17:44:56;96830.56;;;5.19;41.96
45129;BME280;35512;56.312;101.728;2022-09-16T17:47:25;96839.09;;;5.21;42.43
45129;BME280;35512;56.312;101.728;2022-09-16T17:49:54;96836.91;;;5.14;42.58
45129;BME280;35512;56.312;101.728;2022-09-16T17:52:24;96839.56;;;5.14;42.69
45129;BME280;35512;56.312;101.728;2022-09-16T17:54:53;96837.38;;;5.07;42.54
45129;BME280;35512;56.312;101.728;2022-09-16T17:57:22;96833.72;;;4.95;42.84
45129;BME280;35512;56.312;101.728;2022-09-16T17:59:57;96834.19;;;4.88;42.91
45129;BME280;35512;56.312;101.728;2022-09-16T18:02:26;96841.75;;;4.95;43.02
45129;BME280;35512;56.312;101.728;2022-09-16T18:04:56;96833.91;;;4.98;43.08
45129;BME280;35512;56.312;101.728;2022-09-16T18:07:25;96829.97;;;4.96;42.80
45129;BME280;35512;56.312;101.728;2022-09-16T18:09:53;96834.19;;;4.88;42.75
45129;BME280;35512;56.312;101.728;2022-09-16T18:12:22;96827.28;;;4.78;43.10
45129;BME280;35512;56.312;101.728;2022-09-16T18:14:51;96844.13;;;4.70;43.08
45129;BME280;35512;56.312;101.728;2022-09-16T18:17:20;96832.47;;;4.57;43.18
45129;BME280;35512;56.312;101.728;2022-09-16T18:19:49;96831.84;;;4.51;43.37
45129;BME280;35512;56.312;101.728;2022-09-16T18:22:18;96844.41;;;4.51;43.61
45129;BME280;35512;56.312;101.728;2022-09-16T18:24:51;96823.78;;;4.34;43.67
45129;BME280;35512;56.312;101.728;2022-09-16T18:27:20;96836.50;;;4.37;43.85
45129;BME280;35512;56.312;101.728;2022-09-16T18:29:49;96837.47;;;4.32;43.65
45129;BME280;35512;56.312;101.728;2022-09-16T18:32:17;96827.22;;;4.26;43.72
45129;BME280;35512;56.312;101.728;2022-09-16T18:34:46;96823.41;;;4.18;44.06
45129;BME280;35512;56.312;101.728;2022-09-16T18:37:15;96826.03;;;4.00;44.41
45129;BME280;35512;56.312;101.728;2022-09-16T18:39:44;96832.25;;;3.87;44.39
45129;BME280;35512;56.312;101.728;2022-09-16T18:42:13;96833.44;;;3.72;44.72
45129;BME280;35512;56.312;101.728;2022-09-16T18:44:42;96830.63;;;3.68;44.77
45129;BME280;35512;56.312;101.728;2022-09-16T18:47:11;96832.03;;;3.75;44.96
45129;BME280;35512;56.312;101.728;2022-09-16T18:49:40;96832.53;;;3.77;44.88
45129;BME280;35512;56.312;101.728;2022-09-16T18:52:08;96826.13;;;3.78;45.22
45129;BME280;35512;56.312;101.728;2022-09-16T18:54:37;96825.81;;;3.88;44.91
45129;BME280;35512;56.312;101.728;2022-09-16T18:57:07;96822.38;;;3.87;45.07
45129;BME280;35512;56.312;101.728;2022-09-16T18:59:36;96820.00;;;3.86;45.19
45129;BME280;35512;56.312;101.728;2022-09-16T19:02:09;96824.25;;;3.87;45.37
45129;BME280;35512;56.312;101.728;2022-09-16T19:04:40;96832.75;;;3.89;45.36
45129;BME280;35512;56.312;101.728;2022-09-16T19:07:12;96803.63;;;3.79;45.44
45129;BME280;35512;56.312;101.728;2022-09-16T19:09:41;96828.38;;;3.93;45.43
45129;BME280;35512;56.312;101.728;2022-09-16T19:12:12;96823.66;;;3.90;45.61
45129;BME280;35512;56.312;101.728;2022-09-16T19:14:41;96827.22;;;3.85;45.60
45129;BME280;35512;56.312;101.728;2022-09-16T19:17:09;96833.50;;;3.81;45.47
45129;BME280;35512;56.312;101.728;2022-09-16T19:19:38;96834.59;;;3.80;45.57
45129;BME280;35512;56.312;101.728;2022-09-16T19:22:07;96832.41;;;3.82;45.75
45129;BME280;35512;56.312;101.728;2022-09-16T19:24:36;96840.59;;;3.85;45.92
45129;BME280;35512;56.312;101.728;2022-09-16T19:27:05;96833.84;;;3.88;45.93
45129;BME280;35512;56.312;101.728;2022-09-16T19:29:34;96841.22;;;3.91;45.77
45129;BME280;35512;56.312;101.728;2022-09-16T19:32:03;96833.84;;;3.88;46.14
45129;BME280;35512;56.312;101.728;2022-09-16T19:34:32;96837.00;;;3.90;45.97
45129;BME280;35512;56.312;101.728;2022-09-16T19:37:01;96838.56;;;3.91;46.06
45129;BME280;35512;56.312;101.728;2022-09-16T19:39:30;96842.19;;;3.95;46.25
45129;BME280;35512;56.312;101.728;2022-09-16T19:41:59;96831.03;;;3.93;46.66
45129;BME280;35512;56.312;101.728;2022-09-16T19:44:30;96831.34;;;3.92;46.55
45129;BME280;35512;56.312;101.728;2022-09-16T19:46:59;96820.78;;;3.86;46.48
45129;BME280;35512;56.312;101.728;2022-09-16T19:49:29;96834.47;;;3.94;46.33